地図

経路データ

SID SEASON NUMBER BASIN SUBBASIN NAME ISO_TIME NATURE LAT LON WMO_WIND WMO_PRES WMO_AGENCY TRACK_TYPE DIST2LAND LANDFALL IFLAG USA_AGENCY USA_ATCF_ID USA_LAT USA_LON USA_RECORD USA_STATUS USA_WIND USA_PRES USA_SSHS USA_R34_NE USA_R34_SE USA_R34_SW USA_R34_NW USA_R50_NE USA_R50_SE USA_R50_SW USA_R50_NW USA_R64_NE USA_R64_SE USA_R64_SW USA_R64_NW USA_POCI USA_ROCI USA_RMW USA_EYE TOKYO_LAT TOKYO_LON TOKYO_GRADE TOKYO_WIND TOKYO_PRES TOKYO_R50_DIR TOKYO_R50_LONG TOKYO_R50_SHORT TOKYO_R30_DIR TOKYO_R30_LONG TOKYO_R30_SHORT TOKYO_LAND CMA_LAT CMA_LON CMA_CAT CMA_WIND CMA_PRES HKO_LAT HKO_LON HKO_CAT HKO_WIND HKO_PRES NEWDELHI_LAT NEWDELHI_LON NEWDELHI_GRADE NEWDELHI_WIND NEWDELHI_PRES NEWDELHI_CI NEWDELHI_DP NEWDELHI_POCI REUNION_LAT REUNION_LON REUNION_TYPE REUNION_WIND REUNION_PRES REUNION_TNUM REUNION_CI REUNION_RMW REUNION_R34_NE REUNION_R34_SE REUNION_R34_SW REUNION_R34_NW REUNION_R50_NE REUNION_R50_SE REUNION_R50_SW REUNION_R50_NW REUNION_R64_NE REUNION_R64_SE REUNION_R64_SW REUNION_R64_NW BOM_LAT BOM_LON BOM_TYPE BOM_WIND BOM_PRES BOM_TNUM BOM_CI BOM_RMW BOM_R34_NE BOM_R34_SE BOM_R34_SW BOM_R34_NW BOM_R50_NE BOM_R50_SE BOM_R50_SW BOM_R50_NW BOM_R64_NE BOM_R64_SE BOM_R64_SW BOM_R64_NW BOM_ROCI BOM_POCI BOM_EYE BOM_POS_METHOD BOM_PRES_METHOD NADI_LAT NADI_LON NADI_CAT NADI_WIND NADI_PRES WELLINGTON_LAT WELLINGTON_LON WELLINGTON_WIND WELLINGTON_PRES DS824_LAT DS824_LON DS824_STAGE DS824_WIND DS824_PRES TD9636_LAT TD9636_LON TD9636_STAGE TD9636_WIND TD9636_PRES TD9635_LAT TD9635_LON TD9635_WIND TD9635_PRES TD9635_ROCI NEUMANN_LAT NEUMANN_LON NEUMANN_CLASS NEUMANN_WIND NEUMANN_PRES MLC_LAT MLC_LON MLC_CLASS MLC_WIND MLC_PRES USA_GUST BOM_GUST BOM_GUST_PER REUNION_GUST REUNION_GUST_PER USA_SEAHGT USA_SEARAD_NE USA_SEARAD_SE USA_SEARAD_SW USA_SEARAD_NW STORM_SPEED STORM_DIR
1966245N14312 1966 67 NA NA GRETA 1966-09-01 12:00:00 TS 13.7000 -48.4000 25 hurdat_atl main 1057 1052 O_____________ hurdat_atl AL071966 13.7000 -48.4000 TD 25 -1 13 297
1966245N14312 1966 67 NA NA GRETA 1966-09-01 15:00:00 TS 14.0004 -49.0172 main 1059 1055 P_____________ AL071966 14.0004 -49.0172 TD 25 -1 13 297
1966245N14312 1966 67 NA NA GRETA 1966-09-01 18:00:00 TS 14.3000 -49.6000 25 hurdat_atl main 1066 1061 O_____________ hurdat_atl AL071966 14.3000 -49.6000 TD 25 -1 12 299
1966245N14312 1966 67 NA NA GRETA 1966-09-01 21:00:00 TS 14.5998 -50.1227 main 1072 1068 P_____________ AL071966 14.5998 -50.1227 TD 25 -1 11 302
1966245N14312 1966 67 NA NA GRETA 1966-09-02 00:00:00 TS 14.9000 -50.6000 25 1011 hurdat_atl main 1082 1078 O_____________ hurdat_atl AL071966 14.9000 -50.6000 TD 25 1011 -1 11 304
1966245N14312 1966 67 NA NA GRETA 1966-09-02 03:00:00 TS 15.2074 -51.0725 main 1095 1095 P_____________ AL071966 15.2074 -51.0725 TD 27 -1 11 305
1966245N14312 1966 67 NA NA GRETA 1966-09-02 06:00:00 TS 15.5000 -51.5000 30 hurdat_atl main 1114 1112 O_____________ hurdat_atl AL071966 15.5000 -51.5000 TD 30 -1 10 307
1966245N14312 1966 67 NA NA GRETA 1966-09-02 09:00:00 TS 15.7799 -51.8651 main 1136 1121 P_____________ AL071966 15.7799 -51.8651 TD 30 -1 8 307
1966245N14312 1966 67 NA NA GRETA 1966-09-02 12:00:00 TS 16.0000 -52.2000 30 hurdat_atl main 1121 1100 O_____________ hurdat_atl AL071966 16.0000 -52.2000 TD 30 -1 7 298
1966245N14312 1966 67 NA NA GRETA 1966-09-02 15:00:00 TS 16.1224 -52.5427 main 1100 1070 P_____________ AL071966 16.1224 -52.5427 TD 30 -1 7 287
1966245N14312 1966 67 NA NA GRETA 1966-09-02 18:00:00 TS 16.2000 -52.9000 30 hurdat_atl main 1070 1042 O_____________ hurdat_atl AL071966 16.2000 -52.9000 TD 30 -1 8 284
1966245N14312 1966 67 NA NA GRETA 1966-09-02 21:00:00 TS 16.3075 -53.3075 main 1042 1014 P_____________ AL071966 16.3075 -53.3075 TD 30 -1 8 285
1966245N14312 1966 67 NA NA GRETA 1966-09-03 00:00:00 TS 16.4000 -53.7000 30 1010 hurdat_atl main 1014 997 O_____________ hurdat_atl AL071966 16.4000 -53.7000 TD 30 1010 -1 7 283
1966245N14312 1966 67 NA NA GRETA 1966-09-03 03:00:00 TS 16.4649 -54.0075 main 997 972 P_____________ AL071966 16.4649 -54.0075 TD 30 1010 -1 6 280
1966245N14312 1966 67 NA NA GRETA 1966-09-03 06:00:00 TS 16.5000 -54.3000 30 hurdat_atl main 972 948 I_____________ hurdat_atl AL071966 16.5000 -54.3000 TD 30 1011 -1 6 272
1966245N14312 1966 67 NA NA GRETA 1966-09-03 09:00:00 TS 16.4849 -54.6352 main 948 917 P_____________ AL071966 16.4849 -54.6352 TD 30 1012 -1 7 270
1966245N14312 1966 67 NA NA GRETA 1966-09-03 12:00:00 TS 16.5000 -55.0000 30 1013 hurdat_atl main 917 895 O_____________ hurdat_atl AL071966 16.5000 -55.0000 TD 30 1013 -1 7 280
1966245N14312 1966 67 NA NA GRETA 1966-09-03 15:00:00 TS 16.6124 -55.3850 main 895 882 P_____________ AL071966 16.6124 -55.3850 TD 30 -1 8 291
1966245N14312 1966 67 NA NA GRETA 1966-09-03 18:00:00 TS 16.8000 -55.8000 30 hurdat_atl main 884 872 O_____________ hurdat_atl AL071966 16.8000 -55.8000 TD 30 -1 9 296
1966245N14312 1966 67 NA NA GRETA 1966-09-03 21:00:00 TS 17.0201 -56.2650 main 868 865 P_____________ AL071966 17.0201 -56.2650 TD 30 -1 10 300
1966245N14312 1966 67 NA NA GRETA 1966-09-04 00:00:00 TS 17.3000 -56.7000 30 hurdat_atl main 872 870 O_____________ hurdat_atl AL071966 17.3000 -56.7000 TD 30 -1 9 310
1966245N14312 1966 67 NA NA GRETA 1966-09-04 03:00:00 TS 17.6273 -57.0152 main 884 877 P_____________ AL071966 17.6273 -57.0152 TD 32 -1 9 321
1966245N14312 1966 67 NA NA GRETA 1966-09-04 06:00:00 TS 18.0000 -57.3000 35 hurdat_atl main 877 844 O_____________ hurdat_atl AL071966 18.0000 -57.3000 TS 35 0 9 322
1966245N14312 1966 67 NA NA GRETA 1966-09-04 09:00:00 TS 18.3773 -57.6204 main 844 801 P_____________ AL071966 18.3773 -57.6204 TS 37 0 10 320
1966245N14312 1966 67 NA NA GRETA 1966-09-04 12:00:00 TS 18.8000 -58.0000 40 1009 hurdat_atl main 802 763 O_____________ hurdat_atl AL071966 18.8000 -58.0000 TS 40 1009 0 12 319
1966245N14312 1966 67 NA NA GRETA 1966-09-04 15:00:00 TS 19.3000 -58.4774 main 753 710 P_____________ AL071966 19.3000 -58.4774 TS 42 1006 0 14 317
1966245N14312 1966 67 NA NA GRETA 1966-09-04 18:00:00 TS 19.8000 -59.0000 45 1004 hurdat_atl main 710 671 O_____________ hurdat_atl AL071966 19.8000 -59.0000 TS 45 1004 0 14 314
1966245N14312 1966 67 NA NA GRETA 1966-09-04 21:00:00 TS 20.2449 -59.5075 main 671 636 P_____________ AL071966 20.2449 -59.5075 TS 45 0 12 310
1966245N14312 1966 67 NA NA GRETA 1966-09-05 00:00:00 TS 20.6000 -60.0000 45 hurdat_atl main 636 607 O_____________ hurdat_atl AL071966 20.6000 -60.0000 TS 45 0 11 303
1966245N14312 1966 67 NA NA GRETA 1966-09-05 03:00:00 TS 20.8374 -60.4653 main 597 571 P_____________ AL071966 20.8374 -60.4653 TS 42 0 9 295
1966245N14312 1966 67 NA NA GRETA 1966-09-05 06:00:00 TS 21.0000 -60.9000 40 hurdat_atl main 571 541 O_____________ hurdat_atl AL071966 21.0000 -60.9000 TS 40 0 8 291
1966245N14312 1966 67 NA NA GRETA 1966-09-05 09:00:00 TS 21.1423 -61.3003 main 541 521 P_____________ AL071966 21.1423 -61.3003 TS 40 0 8 292
1966245N14312 1966 67 NA NA GRETA 1966-09-05 12:00:00 TS 21.3000 -61.7000 40 hurdat_atl main 521 503 O_____________ hurdat_atl AL071966 21.3000 -61.7000 TS 40 0 9 297
1966245N14312 1966 67 NA NA GRETA 1966-09-05 15:00:00 TS 21.5423 -62.1275 main 503 490 P_____________ AL071966 21.5423 -62.1275 TS 37 0 10 301
1966245N14312 1966 67 NA NA GRETA 1966-09-05 18:00:00 TS 21.8000 -62.6000 35 1007 hurdat_atl main 492 476 O_____________ hurdat_atl AL071966 21.8000 -62.6000 TS 35 1007 0 10 296
1966245N14312 1966 67 NA NA GRETA 1966-09-05 21:00:00 TS 21.9847 -63.1131 main 479 463 P_____________ AL071966 21.9847 -63.1131 TS 35 1007 0 11 291
1966245N14312 1966 67 NA NA GRETA 1966-09-06 00:00:00 TS 22.2000 -63.7000 35 1007 hurdat_atl main 468 464 O_____________ hurdat_atl AL071966 22.2000 -63.7000 TS 35 1007 0 13 295
1966245N14312 1966 67 NA NA GRETA 1966-09-06 03:00:00 TS 22.5198 -64.3627 main 475 475 P_____________ AL071966 22.5198 -64.3627 TS 32 1008 -1 15 298
1966245N14312 1966 67 NA NA GRETA 1966-09-06 06:00:00 TS 22.9000 -65.1000 30 1009 hurdat_atl main 505 504 O_____________ hurdat_atl AL071966 22.9000 -65.1000 TD 30 1009 -1 16 298
1966245N14312 1966 67 NA NA GRETA 1966-09-06 09:00:00 TS 23.2849 -65.8928 main 547 547 P_____________ AL071966 23.2849 -65.8928 TD 27 1010 -1 17 299
1966245N14312 1966 67 NA NA GRETA 1966-09-06 12:00:00 TS 23.7000 -66.7000 25 1011 hurdat_atl main 560 555 O_____________ hurdat_atl AL071966 23.7000 -66.7000 TD 25 1011 -1 17 301
1966245N14312 1966 67 NA NA GRETA 1966-09-06 15:00:00 TS 24.1430 -67.4640 main 565 565 P_____________ AL071966 24.1430 -67.4640 TD 25 1011 -1 16 303
1966245N14312 1966 67 NA NA GRETA 1966-09-06 18:00:00 TS 24.6000 -68.2000 25 1011 hurdat_atl main 588 O_____________ hurdat_atl AL071966 24.6000 -68.2000 TD 25 1011 -1 16 304

IBTrACS Databaseについて

本データベースは、米国NOAAが公開する1842年以降の世界の熱帯低気圧のベストトラックデータアーカイブInternational Best Track Archive for Climate Stewardship (IBTrACS)を、ウェブで閲覧しやすい形式に変換したものです。

最終更新日:2022-06-27